Weather reports worldwide

Advertisment
Bridlington Mrsc, United Kingdom (3292): temperature & dewpoint: 11.11.2018 03:00:00 - 17.11.2018 03:00:00 (GMT)Bridlington Mrsc, United Kingdom (3292): wind speed & gusts: 11.11.2018 03:00:00 - 17.11.2018 03:00:00 (GMT)Bridlington Mrsc, United Kingdom (3292): wind direction: 11.11.2018 03:00:00 - 17.11.2018 03:00:00 (GMT)Bridlington Mrsc, United Kingdom (3292): reduced air pressure: 11.11.2018 03:00:00 - 17.11.2018 03:00:00 (GMT)Bridlington Mrsc, United Kingdom (3292): precipitation: 11.11.2018 03:00:00 - 17.11.2018 03:00:00 (GMT)
Date & Time tt [°C] td [°C] ff [km/h] ff [kn] fx [km/h] fx [kn] dd ppp [hPa] rr [mm]
17.11.2018 03:00:00 9,3 7,3 24 13 - - SE 1029,0 0,0
17.11.2018 02:00:00 8,9 6,7 26 14 - - SSE 1029,1 0,0
17.11.2018 01:00:00 8,7 6,2 28 15 - - SE 1028,5 0,0
17.11.2018 00:00:00 9,2 6,3 29 16 - - SE 1028,2 0,0
16.11.2018 23:00:00 9,5 6,6 26 14 - - SE 1028,2 0,0
16.11.2018 22:00:00 9,4 6,6 26 14 - - ESE 1028,1 0,0
16.11.2018 21:00:00 9,7 6,9 26 14 - - SE 1028,0 0,0
16.11.2018 20:00:00 9,3 7,1 26 14 - - SE 1028,0 0,0
16.11.2018 19:00:00 9,2 7,3 24 13 - - SE 1027,7 0,0
16.11.2018 18:00:00 9,0 7,4 21 11 - - SE 1027,4 0,0
16.11.2018 17:00:00 9,3 8,5 24 13 - - SE 1026,9 0,0
16.11.2018 16:00:00 10,0 9,5 15 8 - - ESE 1026,5 0,0
16.11.2018 15:00:00 10,2 9,8 13 7 - - SE 1026,5 0,0
16.11.2018 14:00:00 10,3 9,8 15 8 - - SE 1026,7 0,0
16.11.2018 13:00:00 10,4 10,1 16 9 - - S 1026,6 0,0
16.11.2018 12:00:00 10,4 10,2 21 11 - - S 1026,3 0,0
16.11.2018 11:00:00 10,2 10,0 24 13 - - S 1026,0 0,0
16.11.2018 10:00:00 10,3 10,1 26 14 - - S 1025,7 0,0
16.11.2018 09:00:00 10,2 10,0 18 10 - - S 1025,7 0,0
16.11.2018 08:00:00 10,3 10,1 16 9 - - SSE 1025,3 0,0
16.11.2018 07:00:00 10,6 10,4 5 3 - - S 1024,4 0,0
16.11.2018 06:00:00 10,6 10,4 8 4 - - SSW 1023,9 0,0
16.11.2018 05:00:00 10,5 10,3 4 2 - - SE 1023,3 0,0
16.11.2018 04:00:00 10,6 10,4 9 5 - - S 1023,1 0,0
16.11.2018 03:00:00 10,8 10,5 16 9 - - S 1022,7 0,0
16.11.2018 02:00:00 11,0 10,6 22 12 - - SSE 1022,1 0,0
16.11.2018 01:00:00 11,1 10,6 22 12 - - S 1021,6 0,0
16.11.2018 00:00:00 11,2 10,6 9 5 - - S 1021,5 0,0
15.11.2018 23:00:00 10,8 10,2 11 6 - - S 1021,4 0,0
15.11.2018 22:00:00 10,5 9,8 8 4 - - S 1020,8 0,0
15.11.2018 21:00:00 10,5 9,8 15 8 - - SSW 1020,0 0,0
15.11.2018 20:00:00 10,3 9,9 22 12 - - S 1019,5 0,0
15.11.2018 19:00:00 10,0 9,5 15 8 - - S 1019,5 0,0
15.11.2018 18:00:00 9,8 8,7 11 6 - - S 1019,5 0,0
15.11.2018 17:00:00 10,2 8,6 11 6 - - SW 1019,3 0,0
15.11.2018 16:00:00 10,7 8,8 16 9 - - SSW 1018,9 0,0
15.11.2018 15:00:00 10,9 9,3 22 12 - - SSW 1018,8 0,0
15.11.2018 14:00:00 11,0 9,7 28 15 - - S 1018,7 0,0
15.11.2018 13:00:00 10,8 9,9 22 12 - - S 1019,1 0,0
15.11.2018 12:00:00 10,6 9,9 22 12 - - S 1019,4 0,0
15.11.2018 11:00:00 10,5 9,6 24 13 - - S 1019,6 0,0
15.11.2018 10:00:00 10,3 9,4 26 14 - - S 1019,8 0,0
15.11.2018 09:00:00 9,6 8,8 18 10 - - S 1019,7 0,0
15.11.2018 08:00:00 8,8 8,0 13 7 - - SSW 1019,7 0,0
15.11.2018 07:00:00 7,9 7,4 15 8 - - SSW 1019,2 0,0
15.11.2018 06:00:00 7,4 6,8 11 6 - - SSW 1019,0 0,0
15.11.2018 05:00:00 7,3 6,5 13 7 - - SSW 1018,9 0,0
15.11.2018 04:00:00 7,9 6,9 16 9 - - SSW 1018,8 0,0
15.11.2018 03:00:00 8,1 7,1 21 11 - - SSW 1018,7 0,0
15.11.2018 02:00:00 8,2 7,1 22 12 - - SSW 1018,8 0,0
15.11.2018 01:00:00 8,4 7,2 21 11 - - SSW 1018,6 0,0
15.11.2018 00:00:00 8,8 7,1 21 11 - - SSW 1018,9 0,0
14.11.2018 23:00:00 9,4 7,6 22 12 - - S 1018,8 0,0
14.11.2018 22:00:00 9,9 7,9 28 15 - - S 1018,6 0,0
14.11.2018 21:00:00 10,3 8,7 24 13 - - S 1018,7 0,0
14.11.2018 20:00:00 10,6 8,7 21 11 - - S 1018,6 0,0
14.11.2018 19:00:00 10,5 8,6 15 8 - - S 1018,6 0,0
14.11.2018 18:00:00 10,7 8,6 15 8 - - S 1018,2 0,0
14.11.2018 17:00:00 11,5 8,7 28 15 - - SSW 1017,6 0,0
14.11.2018 16:00:00 12,5 9,0 22 12 - - S 1017,7 0,0
14.11.2018 15:00:00 13,4 9,0 11 6 50 27 SSW 1017,4 0,0
14.11.2018 14:00:00 14,1 9,5 28 15 48 26 SW 1016,4 0,0
14.11.2018 13:00:00 13,4 9,6 24 13 - - SW 1016,8 0,0
14.11.2018 12:00:00 12,3 9,6 21 11 - - SSW 1017,7 0,0
14.11.2018 11:00:00 11,6 9,4 26 14 - - SSW 1017,5 0,0
14.11.2018 10:00:00 10,6 9,2 21 11 - - S 1017,5 0,0
14.11.2018 09:00:00 10,2 9,2 31 17 - - S 1017,2 0,0
14.11.2018 08:00:00 9,9 9,1 29 16 - - S 1017,2 0,2
14.11.2018 07:00:00 10,0 8,9 35 19 50 27 SSW 1016,8 0,0
14.11.2018 06:00:00 9,9 8,9 35 19 48 26 S 1016,7 0,2
14.11.2018 05:00:00 9,5 8,7 35 19 48 26 S 1017,0 0,2
14.11.2018 04:00:00 9,4 8,3 37 20 48 26 S 1017,4 0,0
14.11.2018 03:00:00 9,5 8,2 34 18 - - S 1018,1 0,0
14.11.2018 02:00:00 9,3 7,8 28 15 - - SSW 1018,9 0,0
14.11.2018 01:00:00 9,5 7,6 21 11 - - SSW 1019,7 0,0
14.11.2018 00:00:00 9,6 7,6 22 12 - - SSW 1020,2 0,0
13.11.2018 23:00:00 9,5 7,3 16 9 - - SSW 1020,2 0,0
13.11.2018 22:00:00 9,2 7,3 18 10 - - SSW 1020,2 0,0
13.11.2018 21:00:00 9,0 6,7 21 11 - - SSW 1020,5 0,0
13.11.2018 20:00:00 8,5 5,9 15 8 - - SW 1020,2 0,0
13.11.2018 19:00:00 8,5 5,3 15 8 - - WSW 1019,9 0,0
13.11.2018 18:00:00 9,4 5,6 15 8 - - SW 1019,8 0,0
13.11.2018 17:00:00 9,7 6,4 9 5 - - SSW 1019,4 0,0
13.11.2018 16:00:00 10,9 5,7 13 7 - - SW 1018,8 0,0
13.11.2018 15:00:00 12,5 6,3 16 9 - - SW 1017,9 0,0
13.11.2018 14:00:00 12,7 6,6 16 9 - - WSW 1016,9 0,0
13.11.2018 13:00:00 12,5 6,9 21 11 52 28 WSW 1015,9 0,0
13.11.2018 12:00:00 12,5 7,0 24 13 54 29 WSW 1015,0 0,0
13.11.2018 11:00:00 11,6 6,5 26 14 48 26 WSW 1014,3 0,0
13.11.2018 10:00:00 10,9 7,0 24 13 - - WSW 1013,2 0,0
13.11.2018 09:00:00 8,7 6,3 18 10 - - SW 1012,3 0,0
13.11.2018 08:00:00 8,0 6,0 21 11 - - SW 1011,0 0,0
13.11.2018 07:00:00 7,9 6,0 22 12 - - SW 1009,8 0,0
13.11.2018 06:00:00 8,1 5,9 22 12 - - SW 1008,8 0,0
13.11.2018 05:00:00 8,2 5,9 18 10 - - SW 1008,2 0,0
13.11.2018 04:00:00 8,1 5,8 18 10 - - SSW 1007,4 0,0
13.11.2018 03:00:00 8,1 6,2 28 15 - - SSW 1006,8 0,0
13.11.2018 02:00:00 8,3 6,1 16 9 - - SW 1006,9 0,0
13.11.2018 01:00:00 8,6 6,6 28 15 52 28 SSW 1006,2 0,0
13.11.2018 00:00:00 9,2 7,1 44 24 55 30 SSW 1005,8 0,0
12.11.2018 23:00:00 9,0 7,0 37 20 - - SSW 1006,0 0,0
12.11.2018 22:00:00 9,2 6,7 29 16 - - SSW 1006,1 0,0
12.11.2018 21:00:00 9,8 6,9 34 18 - - SSW 1006,5 0,0
12.11.2018 20:00:00 10,0 7,3 24 13 - - SSW 1006,4 0,0
12.11.2018 19:00:00 10,3 8,0 28 15 - - SSW 1006,4 0,0
12.11.2018 18:00:00 11,1 8,2 35 19 - - S 1006,2 0,0
12.11.2018 17:00:00 11,0 8,7 26 14 - - S 1005,8 0,0
12.11.2018 16:00:00 11,5 8,3 28 15 - - S 1005,6 0,0
12.11.2018 15:00:00 11,8 8,8 22 12 - - S 1005,3 0,0
12.11.2018 14:00:00 12,6 8,7 28 15 - - SSW 1004,9 0,0
12.11.2018 13:00:00 12,7 8,9 24 13 - - SSW 1005,2 0,0
12.11.2018 12:00:00 12,2 8,7 21 11 - - SSW 1005,4 0,0
12.11.2018 11:00:00 11,4 8,4 22 12 - - SSW 1005,5 0,0
12.11.2018 10:00:00 10,2 8,0 31 17 - - SSW 1005,3 0,0
12.11.2018 09:00:00 9,1 7,5 26 14 - - SSW 1005,2 0,0
12.11.2018 08:00:00 8,0 6,9 18 10 - - SSW 1004,8 0,0
12.11.2018 07:00:00 7,7 6,6 11 6 - - SW 1004,4 0,0
12.11.2018 06:00:00 8,1 6,9 15 8 - - SW 1003,9 0,0
12.11.2018 05:00:00 8,7 7,4 28 15 - - SSW 1003,9 0,0
12.11.2018 04:00:00 8,3 6,8 21 11 - - SSW 1003,6 0,0
12.11.2018 03:00:00 8,4 6,9 28 15 - - SSW 1003,4 0,0
12.11.2018 02:00:00 8,3 6,7 24 13 - - SSW 1003,5 0,0
12.11.2018 01:00:00 8,4 6,7 28 15 - - SSW 1003,3 0,0
12.11.2018 00:00:00 8,2 6,1 15 8 - - SSW 1002,9 0,0
11.11.2018 23:00:00 8,8 6,3 16 9 - - SSW 1002,6 0,0
11.11.2018 22:00:00 8,8 6,7 22 12 - - SSW 1002,2 0,0
11.11.2018 21:00:00 8,9 6,8 24 13 - - SSW 1001,8 0,0
11.11.2018 20:00:00 9,0 6,9 18 10 - - SW 1000,6 0,0
11.11.2018 19:00:00 9,0 6,4 15 8 - - SSW 1000,1 0,0
11.11.2018 18:00:00 9,4 6,7 18 10 - - SSW 999,0 0,0
11.11.2018 17:00:00 10,0 6,7 13 7 - - SW 997,9 0,0
11.11.2018 16:00:00 10,0 6,7 13 7 - - WSW 996,8 0,0
11.11.2018 15:00:00 10,5 7,1 24 13 48 26 WSW 995,8 0,0
11.11.2018 14:00:00 9,8 8,8 16 9 - - SW 994,5 0,2
11.11.2018 13:00:00 9,6 8,9 18 10 - - SSW 993,4 0,0
11.11.2018 12:00:00 9,4 8,7 24 13 - - S 993,1 0,2
11.11.2018 11:00:00 9,1 8,5 26 14 - - S 993,3 0,2
11.11.2018 10:00:00 9,2 8,0 29 16 - - S 993,3 0,0
11.11.2018 09:00:00 9,2 7,8 16 9 - - S 993,3 0,0
11.11.2018 08:00:00 9,1 7,6 24 13 - - SSW 993,3 0,0
11.11.2018 07:00:00 9,1 7,6 22 12 - - SSW 992,8 0,0
11.11.2018 06:00:00 9,4 7,9 18 10 - - SSW 992,5 0,0
11.11.2018 05:00:00 9,2 7,7 15 8 - - SW 992,5 0,0
11.11.2018 04:00:00 9,0 8,0 16 9 - - SW 992,2 0,0
11.11.2018 03:00:00 8,9 8,0 15 8 - - SSW 992,3 0,0

tt = temperature
td = dewpoint
ff = wind speed
fx = gusts
dd = wind direction
ppp = reduced air pressure
rr = precipitation

Next stations